sensor_id;sensor_type;location;lat;lon;timestamp;temperature;humidity
80212;DHT22;69530;37.974;23.708;2023-04-30T00:00:35;23.20;40.20
80212;DHT22;69530;37.974;23.708;2023-04-30T00:03:00;23.20;40.20
80212;DHT22;69530;37.974;23.708;2023-04-30T00:05:26;23.20;40.30
80212;DHT22;69530;37.974;23.708;2023-04-30T00:07:52;23.20;40.30
80212;DHT22;69530;37.974;23.708;2023-04-30T00:10:18;23.20;40.30
80212;DHT22;69530;37.974;23.708;2023-04-30T00:12:43;23.20;40.30
80212;DHT22;69530;37.974;23.708;2023-04-30T00:15:09;23.20;40.40
80212;DHT22;69530;37.974;23.708;2023-04-30T00:17:36;23.20;40.50
80212;DHT22;69530;37.974;23.708;2023-04-30T00:20:02;23.20;40.50
80212;DHT22;69530;37.974;23.708;2023-04-30T00:22:28;23.10;40.60
80212;DHT22;69530;37.974;23.708;2023-04-30T00:24:54;23.10;40.70
80212;DHT22;69530;37.974;23.708;2023-04-30T00:27:19;23.10;40.70
80212;DHT22;69530;37.974;23.708;2023-04-30T00:29:45;23.20;40.90
80212;DHT22;69530;37.974;23.708;2023-04-30T00:32:11;23.10;40.90
80212;DHT22;69530;37.974;23.708;2023-04-30T00:34:36;23.10;40.90
80212;DHT22;69530;37.974;23.708;2023-04-30T00:37:02;23.20;41.10
80212;DHT22;69530;37.974;23.708;2023-04-30T00:39:28;23.20;41.10
80212;DHT22;69530;37.974;23.708;2023-04-30T00:41:54;23.20;41.10
80212;DHT22;69530;37.974;23.708;2023-04-30T00:44:19;23.20;41.10
80212;DHT22;69530;37.974;23.708;2023-04-30T00:46:45;23.20;41.10
80212;DHT22;69530;37.974;23.708;2023-04-30T00:49:11;23.20;41.30
80212;DHT22;69530;37.974;23.708;2023-04-30T00:51:39;23.10;41.30
80212;DHT22;69530;37.974;23.708;2023-04-30T00:54:07;23.10;41.30
80212;DHT22;69530;37.974;23.708;2023-04-30T00:56:33;23.10;41.20
80212;DHT22;69530;37.974;23.708;2023-04-30T00:58:59;23.10;41.10
80212;DHT22;69530;37.974;23.708;2023-04-30T01:01:26;23.10;41.00
80212;DHT22;69530;37.974;23.708;2023-04-30T01:03:55;23.10;40.90
80212;DHT22;69530;37.974;23.708;2023-04-30T01:06:20;23.10;40.80
80212;DHT22;69530;37.974;23.708;2023-04-30T01:08:47;23.10;40.80
80212;DHT22;69530;37.974;23.708;2023-04-30T01:13:50;23.10;41.10
80212;DHT22;69530;37.974;23.708;2023-04-30T01:16:22;23.10;41.10
80212;DHT22;69530;37.974;23.708;2023-04-30T01:19:04;23.10;41.20
80212;DHT22;69530;37.974;23.708;2023-04-30T01:21:35;23.10;41.30
80212;DHT22;69530;37.974;23.708;2023-04-30T01:24:23;23.10;41.20
80212;DHT22;69530;37.974;23.708;2023-04-30T01:27:22;23.00;41.20
80212;DHT22;69530;37.974;23.708;2023-04-30T01:29:50;23.00;41.10
80212;DHT22;69530;37.974;23.708;2023-04-30T01:32:16;23.00;41.00
80212;DHT22;69530;37.974;23.708;2023-04-30T01:34:42;23.00;41.00
80212;DHT22;69530;37.974;23.708;2023-04-30T01:37:24;23.00;40.90
80212;DHT22;69530;37.974;23.708;2023-04-30T01:40:00;23.00;40.80
80212;DHT22;69530;37.974;23.708;2023-04-30T01:42:45;23.00;40.80
80212;DHT22;69530;37.974;23.708;2023-04-30T01:51:05;23.00;40.70
80212;DHT22;69530;37.974;23.708;2023-04-30T01:53:39;23.00;40.70
80212;DHT22;69530;37.974;23.708;2023-04-30T01:56:10;23.00;40.70
80212;DHT22;69530;37.974;23.708;2023-04-30T01:58:37;23.00;40.80
80212;DHT22;69530;37.974;23.708;2023-04-30T02:01:04;23.00;40.80
80212;DHT22;69530;37.974;23.708;2023-04-30T02:03:31;23.00;40.80
80212;DHT22;69530;37.974;23.708;2023-04-30T02:05:57;23.00;40.80
80212;DHT22;69530;37.974;23.708;2023-04-30T02:08:23;23.00;40.80
80212;DHT22;69530;37.974;23.708;2023-04-30T02:10:49;23.00;40.70
80212;DHT22;69530;37.974;23.708;2023-04-30T02:13:15;23.00;40.80
80212;DHT22;69530;37.974;23.708;2023-04-30T02:15:40;23.00;40.70
80212;DHT22;69530;37.974;23.708;2023-04-30T02:18:06;23.00;40.80
80212;DHT22;69530;37.974;23.708;2023-04-30T02:20:32;23.00;40.70
80212;DHT22;69530;37.974;23.708;2023-04-30T02:22:57;23.00;40.80
80212;DHT22;69530;37.974;23.708;2023-04-30T02:25:23;23.00;41.70
80212;DHT22;69530;37.974;23.708;2023-04-30T02:27:49;23.00;40.70
80212;DHT22;69530;37.974;23.708;2023-04-30T02:30:15;23.00;40.70
80212;DHT22;69530;37.974;23.708;2023-04-30T02:32:41;23.00;40.60
80212;DHT22;69530;37.974;23.708;2023-04-30T02:35:07;23.00;40.80
80212;DHT22;69530;37.974;23.708;2023-04-30T02:37:33;23.00;40.70
80212;DHT22;69530;37.974;23.708;2023-04-30T02:39:59;23.00;40.80
80212;DHT22;69530;37.974;23.708;2023-04-30T02:42:24;23.00;40.70
80212;DHT22;69530;37.974;23.708;2023-04-30T02:44:50;23.00;40.70
80212;DHT22;69530;37.974;23.708;2023-04-30T02:47:16;23.00;40.70
80212;DHT22;69530;37.974;23.708;2023-04-30T02:49:41;23.00;40.70
80212;DHT22;69530;37.974;23.708;2023-04-30T02:52:07;23.00;40.70
80212;DHT22;69530;37.974;23.708;2023-04-30T02:54:34;23.00;40.70
80212;DHT22;69530;37.974;23.708;2023-04-30T02:57:00;23.00;40.80
80212;DHT22;69530;37.974;23.708;2023-04-30T02:59:25;23.00;41.80
80212;DHT22;69530;37.974;23.708;2023-04-30T03:01:51;22.90;40.70
80212;DHT22;69530;37.974;23.708;2023-04-30T03:04:17;22.90;40.70
80212;DHT22;69530;37.974;23.708;2023-04-30T03:06:43;22.90;40.70
80212;DHT22;69530;37.974;23.708;2023-04-30T03:09:08;22.90;40.80
80212;DHT22;69530;37.974;23.708;2023-04-30T03:11:34;22.90;40.80
80212;DHT22;69530;37.974;23.708;2023-04-30T03:14:02;22.90;40.80
80212;DHT22;69530;37.974;23.708;2023-04-30T03:16:29;22.90;40.90
80212;DHT22;69530;37.974;23.708;2023-04-30T03:18:55;22.90;40.80
80212;DHT22;69530;37.974;23.708;2023-04-30T03:21:21;22.90;40.90
80212;DHT22;69530;37.974;23.708;2023-04-30T03:23:47;22.90;40.90
80212;DHT22;69530;37.974;23.708;2023-04-30T03:26:13;22.90;40.90
80212;DHT22;69530;37.974;23.708;2023-04-30T03:28:39;22.90;40.90
80212;DHT22;69530;37.974;23.708;2023-04-30T03:31:04;22.90;41.00
80212;DHT22;69530;37.974;23.708;2023-04-30T03:33:31;22.90;41.00
80212;DHT22;69530;37.974;23.708;2023-04-30T03:35:57;23.00;41.10
80212;DHT22;69530;37.974;23.708;2023-04-30T03:38:22;22.90;41.10
80212;DHT22;69530;37.974;23.708;2023-04-30T03:40:48;22.90;41.00
80212;DHT22;69530;37.974;23.708;2023-04-30T03:43:14;22.90;41.10
80212;DHT22;69530;37.974;23.708;2023-04-30T03:45:40;22.90;41.10
80212;DHT22;69530;37.974;23.708;2023-04-30T03:48:06;22.90;41.10
80212;DHT22;69530;37.974;23.708;2023-04-30T03:50:31;22.90;41.20
80212;DHT22;69530;37.974;23.708;2023-04-30T03:52:57;22.90;41.30
80212;DHT22;69530;37.974;23.708;2023-04-30T03:55:23;22.90;41.30
80212;DHT22;69530;37.974;23.708;2023-04-30T03:57:48;22.90;41.40
80212;DHT22;69530;37.974;23.708;2023-04-30T04:00:15;22.90;41.40
80212;DHT22;69530;37.974;23.708;2023-04-30T04:02:41;22.90;41.40
80212;DHT22;69530;37.974;23.708;2023-04-30T04:05:07;22.90;41.50
80212;DHT22;69530;37.974;23.708;2023-04-30T04:07:33;22.90;41.50
80212;DHT22;69530;37.974;23.708;2023-04-30T04:09:59;22.90;41.50
80212;DHT22;69530;37.974;23.708;2023-04-30T04:12:25;22.90;41.50
80212;DHT22;69530;37.974;23.708;2023-04-30T04:14:51;22.90;41.50
80212;DHT22;69530;37.974;23.708;2023-04-30T04:17:17;22.90;41.50
80212;DHT22;69530;37.974;23.708;2023-04-30T04:19:42;22.90;41.60
80212;DHT22;69530;37.974;23.708;2023-04-30T04:22:08;22.90;41.60
80212;DHT22;69530;37.974;23.708;2023-04-30T04:24:34;22.90;41.70
80212;DHT22;69530;37.974;23.708;2023-04-30T04:26:59;22.80;41.60
80212;DHT22;69530;37.974;23.708;2023-04-30T04:29:27;22.90;41.70
80212;DHT22;69530;37.974;23.708;2023-04-30T04:31:53;22.90;41.70
80212;DHT22;69530;37.974;23.708;2023-04-30T04:34:20;22.80;41.70
80212;DHT22;69530;37.974;23.708;2023-04-30T04:36:46;22.90;41.90
80212;DHT22;69530;37.974;23.708;2023-04-30T04:39:12;22.80;41.80
80212;DHT22;69530;37.974;23.708;2023-04-30T04:41:37;22.80;41.90
80212;DHT22;69530;37.974;23.708;2023-04-30T04:44:03;22.80;42.00
80212;DHT22;69530;37.974;23.708;2023-04-30T04:46:30;22.80;41.80
80212;DHT22;69530;37.974;23.708;2023-04-30T04:48:56;22.80;42.00
80212;DHT22;69530;37.974;23.708;2023-04-30T04:51:23;22.90;42.20
80212;DHT22;69530;37.974;23.708;2023-04-30T04:53:48;22.90;42.10
80212;DHT22;69530;37.974;23.708;2023-04-30T04:56:14;22.80;42.10
80212;DHT22;69530;37.974;23.708;2023-04-30T04:58:41;22.80;42.10
80212;DHT22;69530;37.974;23.708;2023-04-30T05:01:07;22.90;42.10
80212;DHT22;69530;37.974;23.708;2023-04-30T05:03:34;22.90;42.10
80212;DHT22;69530;37.974;23.708;2023-04-30T05:06:03;22.90;42.20
80212;DHT22;69530;37.974;23.708;2023-04-30T05:08:29;22.90;42.20
80212;DHT22;69530;37.974;23.708;2023-04-30T05:10:55;22.90;42.30
80212;DHT22;69530;37.974;23.708;2023-04-30T05:13:21;22.90;42.30
80212;DHT22;69530;37.974;23.708;2023-04-30T05:15:50;22.90;42.40
80212;DHT22;69530;37.974;23.708;2023-04-30T05:18:16;22.90;42.50
80212;DHT22;69530;37.974;23.708;2023-04-30T05:20:41;22.90;42.50
80212;DHT22;69530;37.974;23.708;2023-04-30T05:23:07;22.90;42.50
80212;DHT22;69530;37.974;23.708;2023-04-30T05:25:34;22.90;42.50
80212;DHT22;69530;37.974;23.708;2023-04-30T05:28:00;22.90;42.50
80212;DHT22;69530;37.974;23.708;2023-04-30T05:30:26;22.90;42.70
80212;DHT22;69530;37.974;23.708;2023-04-30T05:32:52;22.90;42.70
80212;DHT22;69530;37.974;23.708;2023-04-30T05:35:18;22.90;42.70
80212;DHT22;69530;37.974;23.708;2023-04-30T05:37:44;22.90;42.70
80212;DHT22;69530;37.974;23.708;2023-04-30T05:40:10;22.90;42.80
80212;DHT22;69530;37.974;23.708;2023-04-30T05:42:37;22.90;42.80
80212;DHT22;69530;37.974;23.708;2023-04-30T05:45:05;22.90;42.90
80212;DHT22;69530;37.974;23.708;2023-04-30T05:47:31;22.90;42.90
80212;DHT22;69530;37.974;23.708;2023-04-30T05:49:57;23.00;42.90
80212;DHT22;69530;37.974;23.708;2023-04-30T05:52:23;23.00;42.90
80212;DHT22;69530;37.974;23.708;2023-04-30T05:54:48;23.00;42.90
80212;DHT22;69530;37.974;23.708;2023-04-30T05:57:15;23.00;42.90
80212;DHT22;69530;37.974;23.708;2023-04-30T05:59:41;23.00;42.90
80212;DHT22;69530;37.974;23.708;2023-04-30T06:02:06;23.00;42.90
80212;DHT22;69530;37.974;23.708;2023-04-30T06:04:32;23.00;42.90
80212;DHT22;69530;37.974;23.708;2023-04-30T06:06:58;23.00;42.90
80212;DHT22;69530;37.974;23.708;2023-04-30T06:09:24;23.00;42.90
80212;DHT22;69530;37.974;23.708;2023-04-30T06:11:49;23.00;42.90
80212;DHT22;69530;37.974;23.708;2023-04-30T06:14:17;23.00;42.90
80212;DHT22;69530;37.974;23.708;2023-04-30T06:16:45;23.00;42.80
80212;DHT22;69530;37.974;23.708;2023-04-30T06:19:11;23.00;42.80
80212;DHT22;69530;37.974;23.708;2023-04-30T06:21:37;23.00;42.90
80212;DHT22;69530;37.974;23.708;2023-04-30T06:24:03;23.00;42.90
80212;DHT22;69530;37.974;23.708;2023-04-30T06:26:29;23.00;42.90
80212;DHT22;69530;37.974;23.708;2023-04-30T06:28:55;23.00;42.90
80212;DHT22;69530;37.974;23.708;2023-04-30T06:31:21;23.00;43.00
80212;DHT22;69530;37.974;23.708;2023-04-30T06:33:47;23.10;43.10
80212;DHT22;69530;37.974;23.708;2023-04-30T06:36:13;23.00;43.00
80212;DHT22;69530;37.974;23.708;2023-04-30T06:38:39;23.10;43.10
80212;DHT22;69530;37.974;23.708;2023-04-30T06:41:05;23.10;43.20
80212;DHT22;69530;37.974;23.708;2023-04-30T06:43:30;23.00;43.10
80212;DHT22;69530;37.974;23.708;2023-04-30T06:45:56;23.10;43.10
80212;DHT22;69530;37.974;23.708;2023-04-30T06:48:22;23.10;43.20
80212;DHT22;69530;37.974;23.708;2023-04-30T06:50:48;23.10;43.20
80212;DHT22;69530;37.974;23.708;2023-04-30T06:53:14;23.10;43.20
80212;DHT22;69530;37.974;23.708;2023-04-30T06:55:43;23.10;43.10
80212;DHT22;69530;37.974;23.708;2023-04-30T06:58:09;23.10;43.10
80212;DHT22;69530;37.974;23.708;2023-04-30T07:00:35;23.10;43.10
80212;DHT22;69530;37.974;23.708;2023-04-30T07:03:01;23.10;43.00
80212;DHT22;69530;37.974;23.708;2023-04-30T07:05:29;23.10;43.00
80212;DHT22;69530;37.974;23.708;2023-04-30T07:07:56;23.10;43.00
80212;DHT22;69530;37.974;23.708;2023-04-30T07:10:22;23.10;42.70
80212;DHT22;69530;37.974;23.708;2023-04-30T07:12:48;23.20;42.40
80212;DHT22;69530;37.974;23.708;2023-04-30T07:15:14;23.20;42.30
80212;DHT22;69530;37.974;23.708;2023-04-30T07:17:39;23.20;42.50
80212;DHT22;69530;37.974;23.708;2023-04-30T07:20:07;23.20;42.60
80212;DHT22;69530;37.974;23.708;2023-04-30T07:22:33;23.20;42.60
80212;DHT22;69530;37.974;23.708;2023-04-30T07:24:59;23.20;42.40
80212;DHT22;69530;37.974;23.708;2023-04-30T07:27:26;23.20;42.40
80212;DHT22;69530;37.974;23.708;2023-04-30T07:29:53;23.20;42.30
80212;DHT22;69530;37.974;23.708;2023-04-30T07:32:19;23.20;42.00
80212;DHT22;69530;37.974;23.708;2023-04-30T07:34:45;23.20;41.90
80212;DHT22;69530;37.974;23.708;2023-04-30T07:37:10;23.20;42.00
80212;DHT22;69530;37.974;23.708;2023-04-30T07:39:36;23.20;42.10
80212;DHT22;69530;37.974;23.708;2023-04-30T07:42:03;23.20;41.80
80212;DHT22;69530;37.974;23.708;2023-04-30T07:44:29;23.20;41.60
80212;DHT22;69530;37.974;23.708;2023-04-30T07:46:55;23.30;41.70
80212;DHT22;69530;37.974;23.708;2023-04-30T07:49:21;23.30;41.60
80212;DHT22;69530;37.974;23.708;2023-04-30T07:51:47;23.30;41.50
80212;DHT22;69530;37.974;23.708;2023-04-30T07:54:13;23.30;41.40
80212;DHT22;69530;37.974;23.708;2023-04-30T07:56:38;23.30;41.30
80212;DHT22;69530;37.974;23.708;2023-04-30T07:59:05;23.30;41.60
80212;DHT22;69530;37.974;23.708;2023-04-30T08:01:30;23.30;41.80
80212;DHT22;69530;37.974;23.708;2023-04-30T08:03:56;23.30;41.60
80212;DHT22;69530;37.974;23.708;2023-04-30T08:06:22;23.30;41.30
80212;DHT22;69530;37.974;23.708;2023-04-30T08:08:48;23.40;41.30
80212;DHT22;69530;37.974;23.708;2023-04-30T08:11:14;23.40;41.20
80212;DHT22;69530;37.974;23.708;2023-04-30T08:13:41;23.40;41.30
80212;DHT22;69530;37.974;23.708;2023-04-30T08:16:07;23.40;41.40
80212;DHT22;69530;37.974;23.708;2023-04-30T08:18:33;23.40;41.50
80212;DHT22;69530;37.974;23.708;2023-04-30T08:20:59;23.40;41.60
80212;DHT22;69530;37.974;23.708;2023-04-30T08:23:26;23.40;41.70
80212;DHT22;69530;37.974;23.708;2023-04-30T08:25:52;23.40;41.30
80212;DHT22;69530;37.974;23.708;2023-04-30T08:28:18;23.40;41.00
80212;DHT22;69530;37.974;23.708;2023-04-30T08:30:44;23.40;41.00
80212;DHT22;69530;37.974;23.708;2023-04-30T08:33:10;23.40;41.00
80212;DHT22;69530;37.974;23.708;2023-04-30T08:35:36;23.50;41.00
80212;DHT22;69530;37.974;23.708;2023-04-30T08:38:02;23.40;40.90
80212;DHT22;69530;37.974;23.708;2023-04-30T08:40:28;23.50;41.00
80212;DHT22;69530;37.974;23.708;2023-04-30T08:43:13;23.50;40.90
80212;DHT22;69530;37.974;23.708;2023-04-30T08:45:40;23.50;41.30
80212;DHT22;69530;37.974;23.708;2023-04-30T08:48:09;23.50;41.20
80212;DHT22;69530;37.974;23.708;2023-04-30T08:50:35;23.50;41.10
80212;DHT22;69530;37.974;23.708;2023-04-30T08:53:01;23.50;41.10
80212;DHT22;69530;37.974;23.708;2023-04-30T08:55:27;23.50;41.00
80212;DHT22;69530;37.974;23.708;2023-04-30T08:57:53;23.50;41.00
80212;DHT22;69530;37.974;23.708;2023-04-30T09:00:19;23.50;40.90
80212;DHT22;69530;37.974;23.708;2023-04-30T09:02:46;23.50;40.80
80212;DHT22;69530;37.974;23.708;2023-04-30T09:05:13;23.60;40.90
80212;DHT22;69530;37.974;23.708;2023-04-30T09:07:43;23.60;40.80
80212;DHT22;69530;37.974;23.708;2023-04-30T09:10:20;23.60;40.80
80212;DHT22;69530;37.974;23.708;2023-04-30T09:13:04;23.60;40.60
80212;DHT22;69530;37.974;23.708;2023-04-30T09:15:31;23.60;40.60
80212;DHT22;69530;37.974;23.708;2023-04-30T09:18:37;23.60;40.50
80212;DHT22;69530;37.974;23.708;2023-04-30T09:21:03;23.60;40.50
80212;DHT22;69530;37.974;23.708;2023-04-30T09:23:32;23.60;40.60
80212;DHT22;69530;37.974;23.708;2023-04-30T09:25:58;23.60;40.60
80212;DHT22;69530;37.974;23.708;2023-04-30T09:28:25;23.60;40.50
80212;DHT22;69530;37.974;23.708;2023-04-30T09:30:56;23.60;40.50
80212;DHT22;69530;37.974;23.708;2023-04-30T09:33:22;23.60;40.60
80212;DHT22;69530;37.974;23.708;2023-04-30T09:35:48;23.60;40.60
80212;DHT22;69530;37.974;23.708;2023-04-30T09:38:27;23.60;40.50
80212;DHT22;69530;37.974;23.708;2023-04-30T09:40:53;23.70;40.40
80212;DHT22;69530;37.974;23.708;2023-04-30T09:43:18;23.60;40.60
80212;DHT22;69530;37.974;23.708;2023-04-30T09:45:46;23.60;40.50
80212;DHT22;69530;37.974;23.708;2023-04-30T09:48:17;23.60;40.50
80212;DHT22;69530;37.974;23.708;2023-04-30T09:50:43;23.60;40.50
80212;DHT22;69530;37.974;23.708;2023-04-30T09:53:10;23.70;40.50
80212;DHT22;69530;37.974;23.708;2023-04-30T09:55:41;23.60;40.40
80212;DHT22;69530;37.974;23.708;2023-04-30T09:58:09;23.60;40.50
80212;DHT22;69530;37.974;23.708;2023-04-30T10:00:36;23.70;40.50
80212;DHT22;69530;37.974;23.708;2023-04-30T10:03:16;23.70;40.50
80212;DHT22;69530;37.974;23.708;2023-04-30T10:05:43;23.70;40.50
80212;DHT22;69530;37.974;23.708;2023-04-30T10:08:32;23.70;40.30
80212;DHT22;69530;37.974;23.708;2023-04-30T10:11:08;23.70;40.30
80212;DHT22;69530;37.974;23.708;2023-04-30T10:19:02;23.70;40.30
80212;DHT22;69530;37.974;23.708;2023-04-30T10:21:31;23.70;40.30
80212;DHT22;69530;37.974;23.708;2023-04-30T10:23:57;23.70;40.30
80212;DHT22;69530;37.974;23.708;2023-04-30T10:26:23;23.70;40.30
80212;DHT22;69530;37.974;23.708;2023-04-30T10:28:51;23.80;40.40
80212;DHT22;69530;37.974;23.708;2023-04-30T10:31:18;23.70;40.30
80212;DHT22;69530;37.974;23.708;2023-04-30T10:36:37;23.70;40.40
80212;DHT22;69530;37.974;23.708;2023-04-30T10:39:05;23.70;40.50
80212;DHT22;69530;37.974;23.708;2023-04-30T10:41:31;23.70;40.50
80212;DHT22;69530;37.974;23.708;2023-04-30T10:44:00;23.70;40.60
80212;DHT22;69530;37.974;23.708;2023-04-30T10:46:26;23.70;40.50
80212;DHT22;69530;37.974;23.708;2023-04-30T10:48:53;23.70;40.60
80212;DHT22;69530;37.974;23.708;2023-04-30T10:51:22;23.70;40.70
80212;DHT22;69530;37.974;23.708;2023-04-30T10:53:51;23.70;40.70
80212;DHT22;69530;37.974;23.708;2023-04-30T10:56:31;23.70;40.80
80212;DHT22;69530;37.974;23.708;2023-04-30T10:59:01;23.70;40.80
80212;DHT22;69530;37.974;23.708;2023-04-30T11:01:27;23.70;40.80
80212;DHT22;69530;37.974;23.708;2023-04-30T11:04:10;23.70;40.80
80212;DHT22;69530;37.974;23.708;2023-04-30T11:06:48;23.70;40.80
80212;DHT22;69530;37.974;23.708;2023-04-30T11:09:15;23.80;40.80
80212;DHT22;69530;37.974;23.708;2023-04-30T11:11:43;23.70;40.70
80212;DHT22;69530;37.974;23.708;2023-04-30T11:14:11;23.70;40.80
80212;DHT22;69530;37.974;23.708;2023-04-30T11:16:36;23.80;40.90
80212;DHT22;69530;37.974;23.708;2023-04-30T11:19:13;23.80;40.80
80212;DHT22;69530;37.974;23.708;2023-04-30T11:27:43;23.70;40.90
80212;DHT22;69530;37.974;23.708;2023-04-30T11:30:11;23.70;41.00
80212;DHT22;69530;37.974;23.708;2023-04-30T11:32:38;23.70;41.10
80212;DHT22;69530;37.974;23.708;2023-04-30T11:35:05;23.70;41.10
80212;DHT22;69530;37.974;23.708;2023-04-30T11:37:34;23.70;41.00
80212;DHT22;69530;37.974;23.708;2023-04-30T11:40:07;23.70;40.90
80212;DHT22;69530;37.974;23.708;2023-04-30T11:42:36;23.80;40.90
80212;DHT22;69530;37.974;23.708;2023-04-30T11:45:08;23.80;40.80
80212;DHT22;69530;37.974;23.708;2023-04-30T11:47:52;23.80;40.70
80212;DHT22;69530;37.974;23.708;2023-04-30T11:50:20;23.80;40.60
80212;DHT22;69530;37.974;23.708;2023-04-30T11:52:52;23.80;40.60
80212;DHT22;69530;37.974;23.708;2023-04-30T11:55:22;23.80;40.60
80212;DHT22;69530;37.974;23.708;2023-04-30T11:57:50;23.80;40.50
80212;DHT22;69530;37.974;23.708;2023-04-30T12:00:18;23.80;40.40
80212;DHT22;69530;37.974;23.708;2023-04-30T12:02:47;23.80;40.40
80212;DHT22;69530;37.974;23.708;2023-04-30T12:05:17;23.90;40.40
80212;DHT22;69530;37.974;23.708;2023-04-30T12:07:48;23.90;40.40
80212;DHT22;69530;37.974;23.708;2023-04-30T12:10:15;23.90;40.40
80212;DHT22;69530;37.974;23.708;2023-04-30T12:12:44;23.80;40.30
80212;DHT22;69530;37.974;23.708;2023-04-30T12:15:17;23.90;40.40
80212;DHT22;69530;37.974;23.708;2023-04-30T12:17:44;23.90;40.40
80212;DHT22;69530;37.974;23.708;2023-04-30T12:20:12;23.90;40.40
80212;DHT22;69530;37.974;23.708;2023-04-30T12:22:40;23.90;40.40
80212;DHT22;69530;37.974;23.708;2023-04-30T12:25:18;23.90;40.40
80212;DHT22;69530;37.974;23.708;2023-04-30T12:27:49;23.90;40.30
80212;DHT22;69530;37.974;23.708;2023-04-30T12:30:19;23.90;40.40
80212;DHT22;69530;37.974;23.708;2023-04-30T12:32:49;23.90;40.40
80212;DHT22;69530;37.974;23.708;2023-04-30T12:35:17;23.80;40.40
80212;DHT22;69530;37.974;23.708;2023-04-30T12:38:00;23.90;40.50
80212;DHT22;69530;37.974;23.708;2023-04-30T12:40:26;23.90;40.50
80212;DHT22;69530;37.974;23.708;2023-04-30T12:43:03;23.80;40.40
80212;DHT22;69530;37.974;23.708;2023-04-30T12:45:53;23.80;40.60
80212;DHT22;69530;37.974;23.708;2023-04-30T12:48:24;23.80;40.60
80212;DHT22;69530;37.974;23.708;2023-04-30T12:50:54;23.80;40.60
80212;DHT22;69530;37.974;23.708;2023-04-30T12:53:21;23.80;40.50
80212;DHT22;69530;37.974;23.708;2023-04-30T12:56:23;23.80;40.50
80212;DHT22;69530;37.974;23.708;2023-04-30T12:58:49;23.90;40.50
80212;DHT22;69530;37.974;23.708;2023-04-30T13:01:21;23.90;40.60
80212;DHT22;69530;37.974;23.708;2023-04-30T13:03:52;23.90;40.60
80212;DHT22;69530;37.974;23.708;2023-04-30T13:06:19;23.90;40.60
80212;DHT22;69530;37.974;23.708;2023-04-30T13:08:45;23.90;40.50
80212;DHT22;69530;37.974;23.708;2023-04-30T13:11:11;23.90;40.50
80212;DHT22;69530;37.974;23.708;2023-04-30T13:13:36;23.90;40.50
80212;DHT22;69530;37.974;23.708;2023-04-30T13:16:02;23.90;40.60
80212;DHT22;69530;37.974;23.708;2023-04-30T13:18:31;23.90;40.60
80212;DHT22;69530;37.974;23.708;2023-04-30T13:20:57;23.90;41.60
80212;DHT22;69530;37.974;23.708;2023-04-30T13:23:22;23.80;40.60
80212;DHT22;69530;37.974;23.708;2023-04-30T13:25:48;23.90;41.20
80212;DHT22;69530;37.974;23.708;2023-04-30T13:28:14;23.80;40.60
80212;DHT22;69530;37.974;23.708;2023-04-30T13:30:40;23.80;40.70
80212;DHT22;69530;37.974;23.708;2023-04-30T13:33:08;23.80;40.70
80212;DHT22;69530;37.974;23.708;2023-04-30T13:35:34;23.90;40.80
80212;DHT22;69530;37.974;23.708;2023-04-30T13:38:00;23.90;40.70
80212;DHT22;69530;37.974;23.708;2023-04-30T13:40:26;23.90;40.80
80212;DHT22;69530;37.974;23.708;2023-04-30T13:42:51;23.80;41.70
80212;DHT22;69530;37.974;23.708;2023-04-30T13:45:17;23.80;40.80
80212;DHT22;69530;37.974;23.708;2023-04-30T13:47:43;23.90;40.80
80212;DHT22;69530;37.974;23.708;2023-04-30T13:50:09;23.90;40.90
80212;DHT22;69530;37.974;23.708;2023-04-30T13:52:35;23.90;40.90
80212;DHT22;69530;37.974;23.708;2023-04-30T13:55:01;23.80;41.00
80212;DHT22;69530;37.974;23.708;2023-04-30T13:57:30;23.90;41.00
80212;DHT22;69530;37.974;23.708;2023-04-30T13:59:58;23.90;41.10
80212;DHT22;69530;37.974;23.708;2023-04-30T14:02:25;23.90;41.10
80212;DHT22;69530;37.974;23.708;2023-04-30T14:04:52;23.90;41.10
80212;DHT22;69530;37.974;23.708;2023-04-30T14:07:18;23.90;41.20
80212;DHT22;69530;37.974;23.708;2023-04-30T14:09:43;23.90;41.30
80212;DHT22;69530;37.974;23.708;2023-04-30T14:12:09;23.90;41.30
80212;DHT22;69530;37.974;23.708;2023-04-30T14:14:35;23.90;41.30
80212;DHT22;69530;37.974;23.708;2023-04-30T14:17:00;23.90;41.40
80212;DHT22;69530;37.974;23.708;2023-04-30T14:19:26;23.90;41.50
80212;DHT22;69530;37.974;23.708;2023-04-30T14:21:52;23.90;41.60
80212;DHT22;69530;37.974;23.708;2023-04-30T14:24:18;23.90;41.60
80212;DHT22;69530;37.974;23.708;2023-04-30T14:26:44;24.00;41.70
80212;DHT22;69530;37.974;23.708;2023-04-30T14:29:10;24.00;41.80
80212;DHT22;69530;37.974;23.708;2023-04-30T14:31:36;23.90;41.90
80212;DHT22;69530;37.974;23.708;2023-04-30T14:34:02;23.90;42.00
80212;DHT22;69530;37.974;23.708;2023-04-30T14:36:28;23.90;42.00
80212;DHT22;69530;37.974;23.708;2023-04-30T14:38:53;23.90;42.10
80212;DHT22;69530;37.974;23.708;2023-04-30T14:41:19;23.90;42.20
80212;DHT22;69530;37.974;23.708;2023-04-30T14:43:45;23.90;42.30
80212;DHT22;69530;37.974;23.708;2023-04-30T14:46:11;23.90;42.30
80212;DHT22;69530;37.974;23.708;2023-04-30T14:48:37;23.90;42.40
80212;DHT22;69530;37.974;23.708;2023-04-30T14:51:03;23.90;42.30
80212;DHT22;69530;37.974;23.708;2023-04-30T14:53:29;23.90;42.30
80212;DHT22;69530;37.974;23.708;2023-04-30T14:55:55;23.90;42.40
80212;DHT22;69530;37.974;23.708;2023-04-30T14:58:20;23.90;42.40
80212;DHT22;69530;37.974;23.708;2023-04-30T15:00:46;23.90;42.50
80212;DHT22;69530;37.974;23.708;2023-04-30T15:03:13;23.90;42.60
80212;DHT22;69530;37.974;23.708;2023-04-30T15:05:39;23.90;42.70
80212;DHT22;69530;37.974;23.708;2023-04-30T15:08:05;23.90;42.70
80212;DHT22;69530;37.974;23.708;2023-04-30T15:10:31;23.90;42.80
80212;DHT22;69530;37.974;23.708;2023-04-30T15:12:57;23.90;42.70
80212;DHT22;69530;37.974;23.708;2023-04-30T15:15:22;23.90;42.70
80212;DHT22;69530;37.974;23.708;2023-04-30T15:17:53;23.90;42.70
80212;DHT22;69530;37.974;23.708;2023-04-30T15:20:19;23.90;42.70
80212;DHT22;69530;37.974;23.708;2023-04-30T15:22:45;23.90;42.70
80212;DHT22;69530;37.974;23.708;2023-04-30T15:25:11;23.90;42.70
80212;DHT22;69530;37.974;23.708;2023-04-30T15:27:36;23.90;42.70
80212;DHT22;69530;37.974;23.708;2023-04-30T15:30:04;23.90;42.70
80212;DHT22;69530;37.974;23.708;2023-04-30T15:32:30;23.90;42.70
80212;DHT22;69530;37.974;23.708;2023-04-30T15:34:56;23.80;42.80
80212;DHT22;69530;37.974;23.708;2023-04-30T15:37:22;23.80;42.90
80212;DHT22;69530;37.974;23.708;2023-04-30T15:39:47;23.80;42.90